createdAt,value
2023-05-06T00:00:56.402Z,100.00
2023-05-06T00:03:24.796Z,100.00
2023-05-06T00:05:53.116Z,100.00
2023-05-06T00:08:22.805Z,100.00
2023-05-06T00:10:51.508Z,100.00
2023-05-06T00:13:19.967Z,100.00
2023-05-06T00:15:48.296Z,100.00
2023-05-06T00:18:16.546Z,100.00
2023-05-06T00:20:44.799Z,100.00
2023-05-06T00:23:13.307Z,100.00
2023-05-06T00:25:43.348Z,100.00
2023-05-06T00:32:36.319Z,100.00
2023-05-06T00:35:04.812Z,100.00
2023-05-06T00:37:33.152Z,100.00
2023-05-06T00:40:01.363Z,100.00
2023-05-06T00:51:19.833Z,100.00
2023-05-06T00:53:48.765Z,100.00
2023-05-06T00:56:20.586Z,100.00
2023-05-06T00:58:49.383Z,100.00
2023-05-06T01:01:18.067Z,100.00
2023-05-06T01:03:47.253Z,100.00
2023-05-06T01:06:20.727Z,100.00
2023-05-06T01:08:53.210Z,100.00
2023-05-06T01:20:05.445Z,100.00
2023-05-06T01:22:36.824Z,100.00
2023-05-06T01:25:07.252Z,100.00
2023-05-06T01:27:35.545Z,100.00
2023-05-06T01:30:07.556Z,100.00
2023-05-06T01:32:40.065Z,100.00
2023-05-06T01:35:14.422Z,100.00
2023-05-06T01:37:46.573Z,100.00
2023-05-06T01:40:16.437Z,100.00
2023-05-06T01:42:44.737Z,100.00
2023-05-06T01:45:13.330Z,100.00
2023-05-06T01:47:41.631Z,100.00
2023-05-06T01:59:27.998Z,100.00
2023-05-06T02:01:57.954Z,100.00
2023-05-06T02:04:26.204Z,100.00
2023-05-06T02:06:54.474Z,100.00
2023-05-06T02:13:41.424Z,100.00
2023-05-06T02:16:12.531Z,100.00
2023-05-06T02:18:41.586Z,100.00
2023-05-06T02:21:11.128Z,100.00
2023-05-06T02:36:17.959Z,100.00
2023-05-06T02:38:46.235Z,100.00
2023-05-06T02:41:14.486Z,100.00
2023-05-06T02:43:42.842Z,100.00
2023-05-06T02:50:35.911Z,100.00
2023-05-06T02:53:05.593Z,100.00
2023-05-06T02:55:34.354Z,100.00
2023-05-06T02:58:03.249Z,100.00
2023-05-06T03:00:57.000Z,100.00
2023-05-06T03:03:25.350Z,100.00
2023-05-06T03:05:53.879Z,100.00
2023-05-06T03:08:24.270Z,100.00
2023-05-06T03:10:52.861Z,100.00
2023-05-06T03:13:47.084Z,100.00
2023-05-06T03:16:16.271Z,100.00
2023-05-06T03:18:48.630Z,100.00
2023-05-06T03:21:17.888Z,100.00
2023-05-06T03:24:37.771Z,100.00
2023-05-06T03:27:09.639Z,100.00
2023-05-06T03:29:38.293Z,100.00
2023-05-06T03:32:08.429Z,100.00
2023-05-06T03:35:44.177Z,100.00
2023-05-06T03:38:12.618Z,100.00
2023-05-06T03:40:48.540Z,100.00
2023-05-06T03:43:18.855Z,100.00
2023-05-06T03:54:40.289Z,100.00
2023-05-06T03:57:09.373Z,100.00
2023-05-06T03:59:39.715Z,100.00
2023-05-06T04:02:08.278Z,100.00
2023-05-06T04:08:27.601Z,100.00
2023-05-06T04:10:57.811Z,100.00
2023-05-06T04:13:31.912Z,100.00
2023-05-06T04:20:22.898Z,100.00
2023-05-06T04:22:51.359Z,100.00
2023-05-06T04:25:21.380Z,100.00
2023-05-06T04:27:50.085Z,100.00
2023-05-06T04:34:37.699Z,100.00
2023-05-06T04:37:10.277Z,100.00
2023-05-06T04:39:58.922Z,100.00
2023-05-06T04:42:27.237Z,100.00
2023-05-06T04:45:12.066Z,100.00
2023-05-06T04:47:43.201Z,100.00
2023-05-06T04:50:12.405Z,100.00
2023-05-06T04:52:42.092Z,100.00
2023-05-06T04:55:11.337Z,100.00
2023-05-06T04:57:44.397Z,100.00
2023-05-06T05:00:14.709Z,100.00
2023-05-06T05:02:43.388Z,100.00
2023-05-06T05:05:37.849Z,100.00
2023-05-06T05:08:13.464Z,100.00
2023-05-06T05:10:43.584Z,100.00
2023-05-06T05:13:14.882Z,100.00
2023-05-06T05:15:45.343Z,100.00
2023-05-06T05:18:15.842Z,100.00
2023-05-06T05:20:45.898Z,100.00
2023-05-06T05:23:17.106Z,100.00
2023-05-06T05:26:12.265Z,100.00
2023-05-06T05:28:42.079Z,100.00
2023-05-06T05:31:10.741Z,100.00
2023-05-06T05:33:40.195Z,100.00
2023-05-06T05:36:15.433Z,100.00
2023-05-06T05:38:47.882Z,100.00
2023-05-06T05:41:17.593Z,100.00
2023-05-06T05:43:46.943Z,100.00
2023-05-06T05:49:25.514Z,100.00
2023-05-06T05:51:55.557Z,100.00
2023-05-06T05:54:25.436Z,100.00
2023-05-06T05:56:53.714Z,100.00
2023-05-06T05:59:22.950Z,100.00
2023-05-06T06:01:53.791Z,100.00
2023-05-06T06:04:22.432Z,100.00
2023-05-06T06:06:50.697Z,100.00
2023-05-06T06:09:19.957Z,100.00
2023-05-06T06:11:50.662Z,100.00
2023-05-06T06:14:19.326Z,100.00
2023-05-06T06:16:49.747Z,100.00
2023-05-06T06:23:44.398Z,100.00
2023-05-06T06:26:12.894Z,100.00
2023-05-06T06:28:44.723Z,100.00
2023-05-06T06:31:13.229Z,100.00
2023-05-06T06:33:41.979Z,100.00
2023-05-06T06:36:10.750Z,100.00
2023-05-06T06:38:39.056Z,100.00
2023-05-06T06:41:07.334Z,100.00
2023-05-06T06:44:49.262Z,100.00
2023-05-06T06:47:19.292Z,100.00
2023-05-06T06:49:47.595Z,100.00
2023-05-06T06:52:15.822Z,100.00
2023-05-06T06:54:44.089Z,100.00
2023-05-06T06:57:12.610Z,100.00
2023-05-06T06:59:41.162Z,100.00
2023-05-06T07:02:09.421Z,100.00
2023-05-06T07:04:39.133Z,100.00
2023-05-06T07:11:00.515Z,100.00
2023-05-06T07:13:29.016Z,100.00
2023-05-06T07:15:58.812Z,100.00
2023-05-06T07:19:16.836Z,100.00
2023-05-06T07:21:46.563Z,100.00
2023-05-06T07:24:14.754Z,100.00
2023-05-06T07:26:43.008Z,100.00
2023-05-06T07:29:11.705Z,100.00
2023-05-06T07:31:40.007Z,100.00
2023-05-06T07:34:08.845Z,100.00
2023-05-06T07:36:40.725Z,100.00
2023-05-06T07:39:10.900Z,100.00
2023-05-06T07:41:39.449Z,100.00
2023-05-06T07:44:07.692Z,100.00
2023-05-06T07:46:36.381Z,100.00
2023-05-06T07:49:04.781Z,100.00
2023-05-06T07:55:46.749Z,100.00
2023-05-06T07:58:15.894Z,100.00
2023-05-06T08:00:44.289Z,100.00
2023-05-06T08:07:32.239Z,100.00
2023-05-06T08:10:00.869Z,100.00
2023-05-06T08:12:30.659Z,100.00
2023-05-06T08:14:58.958Z,100.00
2023-05-06T08:17:27.235Z,100.00
2023-05-06T08:19:55.628Z,100.00
2023-05-06T08:22:24.084Z,100.00
2023-05-06T08:24:52.305Z,100.00
2023-05-06T08:27:20.565Z,100.00
2023-05-06T08:29:50.478Z,100.00
2023-05-06T08:32:18.698Z,100.00
2023-05-06T08:34:46.972Z,100.00
2023-05-06T08:37:15.483Z,100.00
2023-05-06T08:39:45.564Z,100.00
2023-05-06T08:42:13.943Z,100.00
2023-05-06T08:44:42.193Z,100.00
2023-05-06T08:47:11.845Z,100.00
2023-05-06T08:49:40.183Z,100.00
2023-05-06T08:52:08.592Z,100.00
2023-05-06T08:54:37.164Z,100.00
2023-05-06T08:57:06.365Z,100.00
2023-05-06T08:59:35.054Z,100.00
2023-05-06T09:02:04.013Z,100.00
2023-05-06T09:04:33.670Z,100.00
2023-05-06T09:07:51.719Z,100.00
2023-05-06T09:10:20.055Z,100.00
2023-05-06T09:12:48.311Z,100.00
2023-05-06T09:15:16.557Z,100.00
2023-05-06T09:17:45.453Z,100.00
2023-05-06T09:20:15.130Z,100.00
2023-05-06T09:22:43.500Z,100.00
2023-05-06T09:25:12.253Z,100.00
2023-05-06T09:27:40.887Z,100.00
2023-05-06T09:30:11.660Z,100.00
2023-05-06T09:32:40.603Z,100.00
2023-05-06T09:35:10.117Z,100.00
2023-05-06T09:37:40.237Z,100.00
2023-05-06T09:40:10.332Z,100.00
2023-05-06T09:42:39.056Z,100.00
2023-05-06T09:45:11.120Z,100.00
2023-05-06T09:47:39.650Z,100.00
2023-05-06T09:50:17.243Z,100.00
2023-05-06T09:52:47.489Z,100.00
2023-05-06T09:55:15.756Z,100.00
2023-05-06T09:57:44.279Z,99.64
2023-05-06T10:00:14.497Z,95.63
2023-05-06T10:02:43.051Z,87.33
2023-05-06T10:05:12.554Z,88.02
2023-05-06T10:07:41.489Z,88.03
2023-05-06T10:10:12.311Z,87.27
2023-05-06T10:12:40.845Z,81.73
2023-05-06T10:15:10.668Z,82.88
2023-05-06T10:17:39.433Z,86.27
2023-05-06T10:20:09.312Z,86.15
2023-05-06T10:22:42.708Z,80.19
2023-05-06T10:25:17.335Z,85.77
2023-05-06T10:27:46.463Z,82.37
2023-05-06T10:30:16.097Z,82.78
2023-05-06T10:32:44.989Z,84.48
2023-05-06T10:35:20.548Z,79.55
2023-05-06T10:37:49.092Z,75.88
2023-05-06T10:40:20.163Z,75.48
2023-05-06T10:42:48.364Z,70.28
2023-05-06T10:45:16.751Z,69.49
2023-05-06T10:48:12.860Z,68.90
2023-05-06T10:50:41.185Z,68.54
2023-05-06T10:53:09.690Z,67.62
2023-05-06T10:55:39.339Z,65.25
2023-05-06T10:58:15.078Z,62.18
2023-05-06T11:00:43.429Z,60.03
2023-05-06T11:07:42.306Z,64.50
2023-05-06T11:10:12.293Z,64.55
2023-05-06T11:12:49.389Z,59.36
2023-05-06T11:15:22.673Z,57.07
2023-05-06T11:17:51.034Z,55.74
2023-05-06T11:20:20.337Z,58.13
2023-05-06T11:22:48.638Z,61.35
2023-05-06T11:25:25.819Z,57.10
2023-05-06T11:27:57.055Z,53.87
2023-05-06T11:30:25.892Z,60.55
2023-05-06T11:32:54.623Z,56.35
2023-05-06T11:35:23.212Z,57.65
2023-05-06T11:37:51.590Z,56.53
2023-05-06T11:40:19.976Z,57.81
2023-05-06T11:42:48.288Z,56.00
2023-05-06T11:45:18.111Z,57.52
2023-05-06T11:47:46.849Z,54.96
2023-05-06T11:50:15.245Z,50.61
2023-05-06T11:52:43.478Z,51.04
2023-05-06T11:55:11.715Z,53.70
2023-05-06T11:57:46.312Z,53.95
2023-05-06T12:00:18.814Z,52.63
2023-05-06T12:02:47.126Z,53.32
2023-05-06T12:05:15.959Z,54.48
2023-05-06T12:08:19.839Z,54.65
2023-05-06T12:10:54.960Z,53.91
2023-05-06T12:13:23.384Z,54.02
2023-05-06T12:15:53.356Z,55.29
2023-05-06T12:18:22.057Z,54.75
2023-05-06T12:20:50.305Z,53.38
2023-05-06T12:23:20.108Z,54.31
2023-05-06T12:25:49.146Z,53.68
2023-05-06T12:28:43.829Z,53.67
2023-05-06T12:31:23.192Z,56.98
2023-05-06T12:33:51.753Z,57.82
2023-05-06T12:36:20.072Z,57.38
2023-05-06T12:38:52.738Z,58.32
2023-05-06T12:41:21.695Z,56.38
2023-05-06T12:43:50.381Z,57.93
2023-05-06T12:46:18.990Z,56.82
2023-05-06T12:52:44.472Z,56.23
2023-05-06T12:55:12.983Z,54.97
2023-05-06T12:57:41.404Z,57.99
2023-05-06T13:00:27.925Z,57.31
2023-05-06T13:02:56.280Z,55.94
2023-05-06T13:05:24.586Z,54.58
2023-05-06T13:07:54.190Z,55.72
2023-05-06T13:10:22.498Z,53.91
2023-05-06T13:12:51.060Z,54.21
2023-05-06T13:15:20.679Z,53.35
2023-05-06T13:17:49.580Z,56.19
2023-05-06T13:20:19.090Z,58.18
2023-05-06T13:22:54.387Z,56.20
2023-05-06T13:25:24.951Z,55.91
2023-05-06T13:27:53.916Z,56.23
2023-05-06T13:30:22.215Z,57.02
2023-05-06T13:32:50.543Z,57.65
2023-05-06T13:35:18.963Z,59.27
2023-05-06T13:37:47.223Z,57.73
2023-05-06T13:40:15.916Z,60.81
2023-05-06T13:42:45.565Z,60.70
2023-05-06T13:45:13.857Z,58.83
2023-05-06T13:47:43.354Z,58.94
2023-05-06T13:50:12.668Z,59.02
2023-05-06T13:52:41.069Z,58.45
2023-05-06T13:55:10.307Z,60.04
2023-05-06T13:57:38.815Z,60.33
2023-05-06T14:00:11.198Z,59.80
2023-05-06T14:02:39.537Z,59.15
2023-05-06T14:05:08.996Z,60.08
2023-05-06T14:07:40.402Z,61.49
2023-05-06T14:10:10.591Z,60.28
2023-05-06T14:13:21.409Z,59.71
2023-05-06T14:15:51.148Z,60.18
2023-05-06T14:18:19.502Z,57.54
2023-05-06T14:20:47.720Z,57.71
2023-05-06T14:23:15.967Z,59.80
2023-05-06T14:25:44.234Z,59.30
2023-05-06T14:28:12.980Z,59.79
2023-05-06T14:30:41.233Z,55.71
2023-05-06T14:33:11.582Z,56.12
2023-05-06T14:35:41.844Z,56.40
2023-05-06T14:38:10.690Z,54.74
2023-05-06T14:40:38.989Z,56.15
2023-05-06T14:43:08.046Z,60.24
2023-05-06T14:46:28.593Z,62.80
2023-05-06T14:48:59.106Z,63.20
2023-05-06T14:51:29.183Z,64.62
2023-05-06T14:53:58.168Z,64.37
2023-05-06T14:57:01.345Z,63.11
2023-05-06T14:59:29.579Z,64.58
2023-05-06T15:01:58.915Z,66.14
2023-05-06T15:04:28.598Z,67.13
2023-05-06T15:06:57.981Z,67.54
2023-05-06T15:09:26.425Z,65.83
2023-05-06T15:11:54.782Z,64.11
2023-05-06T15:14:23.029Z,63.78
2023-05-06T15:16:51.809Z,64.34
2023-05-06T15:19:20.079Z,65.32
2023-05-06T15:21:49.748Z,66.42
2023-05-06T15:24:17.973Z,64.92
2023-05-06T15:26:46.346Z,64.07
2023-05-06T15:29:14.885Z,63.62
2023-05-06T15:31:45.120Z,63.08
2023-05-06T15:34:13.454Z,63.73
2023-05-06T15:36:42.549Z,60.71
2023-05-06T15:39:18.292Z,61.77
2023-05-06T15:41:47.255Z,63.57
2023-05-06T15:44:16.253Z,61.28
2023-05-06T15:46:44.953Z,62.30
2023-05-06T15:49:54.802Z,61.79
2023-05-06T15:52:23.714Z,60.75
2023-05-06T15:54:58.945Z,62.27
2023-05-06T15:57:30.178Z,62.88
2023-05-06T16:00:12.405Z,61.89
2023-05-06T16:02:41.199Z,61.08
2023-05-06T16:05:10.604Z,61.14
2023-05-06T16:07:38.946Z,59.35
2023-05-06T16:13:46.393Z,61.10
2023-05-06T16:16:14.798Z,61.42
2023-05-06T16:18:43.058Z,60.71
2023-05-06T16:21:35.681Z,61.71
2023-05-06T16:24:04.673Z,61.87
2023-05-06T16:26:34.555Z,62.26
2023-05-06T16:29:02.799Z,64.80
2023-05-06T16:31:31.524Z,64.72
2023-05-06T16:33:59.791Z,64.89
2023-05-06T16:36:28.660Z,64.80
2023-05-06T16:38:56.947Z,65.89
2023-05-06T16:41:25.174Z,66.05
2023-05-06T16:43:55.218Z,66.53
2023-05-06T16:46:24.711Z,67.83
2023-05-06T16:48:54.207Z,68.60
2023-05-06T16:51:22.787Z,68.69
2023-05-06T16:53:51.114Z,69.45
2023-05-06T16:56:19.293Z,68.71
2023-05-06T16:58:47.562Z,69.45
2023-05-06T17:01:17.364Z,69.67
2023-05-06T17:03:46.341Z,70.34
2023-05-06T17:06:14.817Z,72.10
2023-05-06T17:08:43.276Z,73.25
2023-05-06T17:11:11.590Z,74.93
2023-05-06T17:13:39.830Z,74.80
2023-05-06T17:16:08.653Z,76.40
2023-05-06T17:18:38.844Z,77.70
2023-05-06T17:21:08.290Z,78.40
2023-05-06T17:23:58.250Z,79.53
2023-05-06T17:26:27.012Z,79.88
2023-05-06T17:28:55.506Z,81.18
2023-05-06T17:31:23.929Z,81.74
2023-05-06T17:33:53.695Z,82.05
2023-05-06T17:36:22.389Z,82.51
2023-05-06T17:38:53.110Z,85.07
2023-05-06T17:41:21.364Z,84.96
2023-05-06T17:43:49.669Z,85.81
2023-05-06T17:46:19.615Z,86.32
2023-05-06T17:48:48.044Z,87.78
2023-05-06T17:51:18.296Z,89.17
2023-05-06T17:53:46.547Z,89.34
2023-05-06T17:56:14.760Z,90.08
2023-05-06T17:58:43.012Z,91.49
2023-05-06T18:01:11.693Z,91.27
2023-05-06T18:03:40.442Z,92.13
2023-05-06T18:06:09.316Z,92.45
2023-05-06T18:08:38.928Z,93.33
2023-05-06T18:11:07.244Z,93.53
2023-05-06T18:13:36.557Z,94.13
2023-05-06T18:16:05.023Z,94.43
2023-05-06T18:18:33.534Z,94.54
2023-05-06T18:21:01.759Z,95.33
2023-05-06T18:23:30.197Z,95.62
2023-05-06T18:25:59.799Z,96.15
2023-05-06T18:28:28.047Z,96.83
2023-05-06T18:30:56.750Z,96.65
2023-05-06T18:33:25.110Z,97.45
2023-05-06T18:35:53.400Z,97.83
2023-05-06T18:38:21.643Z,98.35
2023-05-06T18:40:49.913Z,98.95
2023-05-06T18:43:19.564Z,100.00
2023-05-06T18:46:05.421Z,99.75
2023-05-06T18:48:33.835Z,100.00
2023-05-06T18:51:12.676Z,100.00
2023-05-06T18:53:41.041Z,100.00
2023-05-06T18:57:10.412Z,100.00
2023-05-06T18:59:40.148Z,100.00
2023-05-06T19:02:08.867Z,100.00
2023-05-06T19:04:37.279Z,100.00
2023-05-06T19:07:55.813Z,100.00
2023-05-06T19:10:24.256Z,100.00
2023-05-06T19:12:53.179Z,100.00
2023-05-06T19:15:23.297Z,100.00
2023-05-06T19:17:51.646Z,100.00
2023-05-06T19:20:19.904Z,100.00
2023-05-06T19:22:48.166Z,100.00
2023-05-06T19:25:16.418Z,100.00
2023-05-06T19:28:00.393Z,100.00
2023-05-06T19:30:30.615Z,100.00
2023-05-06T19:32:59.409Z,100.00
2023-05-06T19:35:27.658Z,100.00
2023-05-06T19:39:31.145Z,100.00
2023-05-06T19:41:11.036Z,100.00
2023-05-06T19:43:42.135Z,100.00
2023-05-06T19:46:11.873Z,100.00
2023-05-06T19:48:40.162Z,100.00
2023-05-06T19:51:08.372Z,100.00
2023-05-06T19:53:37.220Z,100.00
2023-05-06T19:56:11.900Z,100.00
2023-05-06T19:58:40.196Z,100.00
2023-05-06T20:01:09.970Z,100.00
2023-05-06T20:03:40.981Z,100.00
2023-05-06T20:06:10.495Z,100.00
2023-05-06T20:08:38.968Z,100.00
2023-05-06T20:11:07.360Z,100.00
2023-05-06T20:13:35.822Z,100.00
2023-05-06T20:16:04.388Z,100.00
2023-05-06T20:18:33.654Z,100.00
2023-05-06T20:21:03.688Z,100.00
2023-05-06T20:23:32.405Z,100.00
2023-05-06T20:26:00.648Z,100.00
2023-05-06T20:28:28.872Z,100.00
2023-05-06T20:30:59.782Z,100.00
2023-05-06T20:33:28.185Z,100.00
2023-05-06T20:35:57.929Z,100.00
2023-05-06T20:38:30.169Z,100.00
2023-05-06T20:40:59.119Z,100.00
2023-05-06T20:43:27.324Z,100.00
2023-05-06T20:45:55.634Z,100.00
2023-05-06T20:48:23.934Z,100.00
2023-05-06T20:50:54.254Z,100.00
2023-05-06T20:53:22.747Z,100.00
2023-05-06T20:55:53.071Z,100.00
2023-05-06T20:58:21.398Z,100.00
2023-05-06T21:00:50.548Z,100.00
2023-05-06T21:03:18.905Z,100.00
2023-05-06T21:05:47.333Z,100.00
2023-05-06T21:08:16.464Z,100.00
2023-05-06T21:11:53.562Z,100.00
2023-05-06T21:14:24.762Z,100.00
2023-05-06T21:16:53.388Z,100.00
2023-05-06T21:19:21.687Z,100.00
2023-05-06T21:21:49.969Z,100.00
2023-05-06T21:24:18.167Z,100.00
2023-05-06T21:26:46.718Z,100.00
2023-05-06T21:29:14.961Z,100.00
2023-05-06T21:31:44.886Z,100.00
2023-05-06T21:34:13.134Z,100.00
2023-05-06T21:36:42.342Z,100.00
2023-05-06T21:39:12.042Z,100.00
2023-05-06T21:41:40.642Z,100.00
2023-05-06T21:44:10.121Z,100.00
2023-05-06T21:46:38.722Z,100.00
2023-05-06T21:49:08.372Z,100.00
2023-05-06T21:51:36.948Z,100.00
2023-05-06T21:54:05.337Z,100.00
2023-05-06T21:56:33.633Z,100.00
2023-05-06T21:59:02.201Z,100.00
2023-05-06T22:01:30.525Z,100.00
2023-05-06T22:03:58.842Z,100.00
2023-05-06T22:06:29.135Z,100.00
2023-05-06T22:08:57.382Z,100.00
2023-05-06T22:11:25.989Z,100.00
2023-05-06T22:18:13.948Z,100.00
2023-05-06T22:20:42.178Z,100.00
2023-05-06T22:23:12.649Z,100.00
2023-05-06T22:25:41.225Z,100.00
2023-05-06T22:28:09.461Z,100.00
2023-05-06T22:30:37.716Z,100.00
2023-05-06T22:33:06.156Z,100.00
2023-05-06T22:35:34.451Z,100.00
2023-05-06T22:38:03.059Z,100.00
2023-05-06T22:40:32.664Z,100.00
2023-05-06T22:43:00.903Z,100.00
2023-05-06T22:45:29.146Z,100.00
2023-05-06T22:48:23.856Z,100.00
2023-05-06T22:50:52.842Z,100.00
2023-05-06T22:53:21.306Z,100.00
2023-05-06T22:55:50.986Z,100.00
2023-05-06T22:58:43.961Z,100.00
2023-05-06T23:01:12.294Z,100.00
2023-05-06T23:03:40.610Z,100.00
2023-05-06T23:06:09.273Z,100.00
2023-05-06T23:08:37.504Z,100.00
2023-05-06T23:11:07.142Z,100.00
2023-05-06T23:13:36.598Z,100.00
2023-05-06T23:16:05.267Z,100.00
2023-05-06T23:18:33.960Z,100.00
2023-05-06T23:21:02.939Z,100.00
2023-05-06T23:23:31.295Z,100.00
2023-05-06T23:25:59.528Z,100.00
2023-05-06T23:28:29.219Z,100.00
2023-05-06T23:31:37.877Z,100.00
2023-05-06T23:34:06.544Z,100.00
2023-05-06T23:36:35.324Z,100.00
2023-05-06T23:39:04.234Z,100.00
2023-05-06T23:41:32.467Z,100.00
2023-05-06T23:44:02.141Z,100.00
2023-05-06T23:46:30.827Z,100.00
2023-05-06T23:48:59.122Z,100.00
2023-05-06T23:51:27.766Z,100.00
2023-05-06T23:57:56.533Z,100.00
